Timeline UpdatesTrip UpdatesNews PostsPvt PostsTravel TipsAdmin PostsConv PostsFollowed PostsChat RequestsBlog PostsPNR Posts

Disclaimer
Search
 
 
Fri Aug 1, 2014 19:23:50 ISTHomeTrainsΣChainsAtlasPNRForumGalleryNewsFAQTripsMembersLoginFeedback
Latest...
The 15483 Alipurduar Jn. - Delhi Sikkim Mahananda Express scheduled to leave Alipurduar Junction at 07.15 hours of 2nd August 2014 is cancelled as the 15484 Delhi - Alipurduar Jn. Sikkim Mahananda Express scheduled to leave Delhi on 31st July 2014 has been cancelled by Northern Railway.
Thu Jul 31, 2014 (07:59PM)
⇐ Return Journey: Train# 15483

14084⇒15484/Sikkim Mahananda Express

Jan 14 2014 (8:06PM)
Change Departure Station:
Change Arrival Station:
Post a Train Travel TipPost a Train Travel Tip **new
Post a Comment/Question/Picture/VideoPost a Comment/Question/Picture/Video
Pantry/Catering
✓ Pantry Car Avbl
✓ Catering Avbl
RSA - Rake Sharing
Rake/Coach Composition
LOCO-SLR-GS-GS-GS-S1-S2-S3-S4-S5-S6-S7-S8-S9-S10-S11-PC-B1-AB-GS-GS-GS-SLR
Loco
DLI - PNBE: Mughalsarai shed WAP-4 or Ghaziabad shed WAP-4/7 PNBE...
Read more...
- APDJ: WDP4/4B of Siliguri shed. **Spotted with MGS WAP-4 22739 at MGS on 30/03/2013**
News    PNR    Forum    Time-Table    Availability    Fare Chart    Map    Arr/Dep History    Trips    Gallery    ΣChains    X/O    Timeline    
Travel Time: 6h 16m    11 halts    Distance: 316 km    Avg Speed: 50 km/hr
Type: Mail/Express
Zone: NFR/Northeast Frontier
Departs @ 06:40 (Avg 1h 9m late)
Platform# 9
SMTWTFS
Old Delhi Junction/DLI 
Arrives @ 12:56 (Avg 1h 24m late)
Platform# 3
SMTWTFS
Bharthana/BNT 

11 halts. 45 intermediate Stations between Old Delhi Junction and Bharthana

Show ALL intermediate Stations  Show Old Time-Table

#CodeStation NameX/OArrivesAvgDepartsAvgHaltPFDay#KmSpeedElevZoneAddress
1DLI»Old Delhi Junction (16)»  -06:40+1:09910.024219mNRNear Chandni Chowk Metro Station, Delhi NCT
2DSAShahdara Junction (4)  06:56+1:1906:58+1:202m216.329212mNRCircular Rd, Delhi NCT
3GZBGhaziabad Junction (6)X  07:26+1:0607:28+1:082m2119.980217mNRGhaziabad, Uttar Pradesh
4CHLChola (3)  08:04+1:1308:06+1:172m--168.058204mNCRTahsil Bulandshahar, Uttar Pradesh
5KRJKhurja Junction (4)X  08:21+1:1908:23+1:232m2182.671199mNCRBulandshahr, Uttar Pradesh
6ALJNAligarh Junction (4)X  09:00+1:2609:05+1:265m11126.182192mNCRAligarh, Uttar Pradesh
7HRSHathras Junction (3)X  09:27+1:3609:32+1:345m11156.286183mNCRMahamaya Nagar(05722-242803), Uttar Pradesh
8JLSJalesar Road (1)X  09:46+1:3709:48+1:422m11176.323172mNCRMDR 106W, Uttar Pradesh
9TDLTundla Junction (5)  11:00+1:1311:08+1:128m31204.245167mNCRDistt.Firozabad, Uttar Pradesh
10FZDFirozabad (4)  11:30+1:1211:32+1:142m21220.857164mNCRFirozabad, Uttar Pradesh
11SKBShikohabad Junction (4)X  11:53+1:1211:55+1:132m21240.677166mNCRDistrict Firozabad, Uttar Pradesh
12ETWEtawah (5)  12:38+1:1712:40+1:202m31296.075154mNCRDistt. Etawah, Uttar Pradesh
13BNT•Bharthana (3)•  12:56+1:2412:58+1:242m31315.969147mNCRBharthana, Uttar Pradesh
14ULDAchalda (3)  13:15+1:2313:17+1:242m31335.463147mNCRDist. Auraiya(05688-1072), Uttar Pradesh
15PHDPhaphund (4)X  13:33+1:2613:35+1:272m31352.270146mNCRdist. Auraiya, Uttar Pradesh
16JJKJhinjhak (3)  13:52+1:2513:54+1:262m31372.067140mNCRAuraiya, Uttar Pradesh
17RURARura (4)  14:11+1:3014:13+1:302m31391.145137mNCRJhinjhak, Uttar Pradesh
18CNBKanpur Central (10)X  15:12+1:5515:20+2:028m51435.474128mNCRKANPUR-208 001, Uttar Pradesh
19FTPFatehpur (3)  16:23+2:2116:25+2:162m21513.078120mNCRFatehpur, Uttar Pradesh
20ALDAllahabad Junction (10)X  17:55+2:1818:05+2:3010m41629.739100mNCRAllahabad 211003, Uttar Pradesh
21NYNNaini Junction (4)  18:16+2:4718:18+2:522m11636.88698mNCRAllahabad, Uttar Pradesh
22BDLVindhyachal (3)X  19:10+4:1619:12+4:222m21711.62188mNCRMirzapur, Uttar Pradesh
23MZPMirzapur (3)X  19:33+4:0919:35+4:132m21718.94588mNCRMirzapur, Uttar Pradesh
24MGSMughal Sarai Junction (8)X  21:00+4:5521:15+4:5415m11782.16683mECRMughalsarai 232101, Uttar Pradesh
25BXRBuxar (3)  22:41+5:0822:43+5:092m--1876.09167mECRBuxar, Bihar
26ARAAra Junction (3)X  23:28+5:2023:30+5:142m--1944.58863mECRarrah( 06182-233411), Bihar
27DNRDanapur (5)  23:57+5:3623:59+5:432m--1984.01658mECRKhagaul, Bihar
28PNBEPatna Junction (10)00:35+5:2401:00+5:3325m22993.47757mECRPatna 800001, Bihar
29BKPBakhtiyarpur Junction (5)X  01:35+5:4501:37+5:402m--21038.65951mECRPatna, Bihar
30MKAMokama Junction (3)X  02:22+5:4902:24+5:492m--21082.71448mECRPatna, Bihar
31BJUBarauni Junction (9)  03:55+5:4804:00+5:495m121103.43749mECRBegusarai, Bihar
32BGSBegu Sarai (3)X  04:22+5:5104:24+5:512m--21116.836 ECRBegusarai, Bihar
33LKNLakhminia  04:54+5:4704:56+5:492m--21134.64845mECRBegusarai, Bihar
34SKJSahibpur Kamal Junction (2)  05:08+5:5005:10+5:502m--21144.32941mECRShahpur Kamal, Bihar
35KGGKhagaria Junction (3)XO  05:36+5:3905:38+5:432m--21156.76643mECRKhagaria, Bihar
36MNEMansi Junction (3)O  05:46+5:4705:48+5:502m--21165.54243mECRMansi, Bihar
37MSKMahes Khunt  06:03+5:4906:05+5:502m--21175.93237mECRMaheshkhunt, Bihar
38PSRPasraha  06:28+5:5206:30+6:002m--21188.32541mECRPasraha, Bihar
39NNRNarayanpurO  06:58+5:4707:00+5:492m--21199.91639mECRNarayanpur, Bihar
40THBThana Bihpur JunctionX  07:28+5:3407:30+5:342m--21207.52839mECRThana Bihpur, Bihar
41NNANaugachiaX  08:04+5:1908:06+5:192m--21223.43737mECRBhagalpur, Bihar
42KUEKurselaX  08:36+5:1408:38+5:152m--21241.96031mECRNH 31, Bihar
43CRRKaragola Road  08:55+5:1308:57+5:182m--21258.94636mECRLachhmipur, Bihar
44SMOSemapurX09:11+5:1809:13+5:142m--21269.74135mECRKatihar, Bihar
45KIRKatihar Junction (7)  09:30+5:4809:50+5:5120m621281.25335mNFRKatihar 854105, Bihar
46LAVLabha  10:16+5:4210:18+5:432m--21304.05529mNFRNational Highway 81, Bihar
47AZRAzamnagar Road (2)X  10:41+5:3710:43+5:392m--21325.16234mNFRAzamnagar, Bihar
48BOEBarsoi Junction (3)  10:56+5:4910:58+5:502m--21338.47637mNFRdist- katihar, Bihar
49DLKDalkhola (3)  11:21+5:4211:23+5:422m--21367.46844mNFRDalkola, West Bengal
50KNEKishanGanj (3)  11:48+6:0911:50+6:102m121396.07352mNFRKishanganj, Bihar
51AUBAluabari Road (2)X  12:15+5:4312:17+5:432m221426.6470mNFRDist - uttar Dinajpur, West Bengal
52NJPNew Jalpaiguri Junction (8)X  13:30+6:2713:45+6:2915m121483.322114mNFRCity-Siliguri . Dist-Jalpaiguri, West Bengal
53SGUJSiliguri Junction (5)  14:05+6:0714:10+6:185m421490.551120mNFRDist-Darjeeling Siliguri-734001, West Bengal
54NMZNew Mal Junction (3)  15:06+6:2215:11+6:225m--21538.368161mNFRDist - Jalpaiguri, West Bengal
55BNVBinnaguri (3)X  15:50+6:0815:52+6:082m--21582.749132mNFRDist : jalpaiguri, West Bengal
56DLODalgaon (3)  16:03+6:3216:05+6:322m--21591.743 NFRDist : Alipurduar, West Bengal
57HSAHasimara (3)  16:40+6:2516:42+6:292m--21617.027123mNFRDist - Alipurduar, West Bengal
58APDJAlipur Duar Junction (3)  18:00+6:41---21651.8-53mNFRDist - Alipurduar, West Bengal
Scroll to Top
Scroll to Bottom